createdAt,value
2023-01-08T00:01:28.305Z,0.00
2023-01-08T00:06:25.762Z,0.10
2023-01-08T00:11:26.646Z,0.30
2023-01-08T00:16:24.001Z,0.20
2023-01-08T00:21:21.498Z,0.00
2023-01-08T00:26:18.827Z,0.00
2023-01-08T00:31:16.135Z,0.00
2023-01-08T00:36:16.538Z,0.10
2023-01-08T00:41:15.151Z,0.10
2023-01-08T00:46:12.902Z,0.00
2023-01-08T00:51:10.566Z,-0.20
2023-01-08T00:56:10.353Z,-0.50
2023-01-08T01:01:14.768Z,-0.40
2023-01-08T01:06:14.043Z,-0.30
2023-01-08T01:11:26.841Z,-0.30
2023-01-08T01:16:24.626Z,-0.60
2023-01-08T01:21:25.963Z,-0.50
2023-01-08T01:26:27.259Z,-0.50
2023-01-08T01:31:26.000Z,-0.50
2023-01-08T01:36:27.346Z,-0.70
2023-01-08T01:41:50.473Z,-0.80
2023-01-08T01:46:48.401Z,-0.70
2023-01-08T01:51:54.186Z,-0.80
2023-01-08T01:56:51.807Z,-0.90
2023-01-08T02:01:50.297Z,-0.70
2023-01-08T02:07:05.138Z,-0.90
2023-01-08T02:12:16.769Z,-0.90
2023-01-08T02:17:45.904Z,-0.80
2023-01-08T02:22:52.153Z,-0.80
2023-01-08T02:27:51.445Z,-0.90
2023-01-08T02:32:48.676Z,-0.70
2023-01-08T02:37:46.189Z,-0.60
2023-01-08T02:43:06.338Z,-0.50
2023-01-08T02:48:42.714Z,-0.50
2023-01-08T02:53:49.134Z,-0.50
2023-01-08T02:58:48.696Z,-0.70
2023-01-08T03:03:51.398Z,-0.80
2023-01-08T03:08:51.847Z,-0.80
2023-01-08T03:13:59.527Z,-0.70
2023-01-08T03:19:15.928Z,-0.80
2023-01-08T03:24:25.688Z,-0.60
2023-01-08T03:29:24.624Z,-0.70
2023-01-08T03:34:24.199Z,-0.80
2023-01-08T03:39:28.974Z,-1.00
2023-01-08T03:44:34.871Z,-1.10
2023-01-08T03:49:33.401Z,-1.20
2023-01-08T03:54:33.261Z,-1.10
2023-01-08T03:59:30.905Z,-1.20
2023-01-08T04:04:29.075Z,-1.20
2023-01-08T04:09:26.925Z,-1.30
2023-01-08T04:14:27.339Z,-1.10
2023-01-08T04:19:24.834Z,-1.20
2023-01-08T04:24:22.319Z,-0.90
2023-01-08T04:29:19.593Z,-1.00
2023-01-08T04:34:22.691Z,-0.80
2023-01-08T04:39:21.614Z,-1.00
2023-01-08T04:44:20.235Z,-0.90
2023-01-08T04:49:18.391Z,-1.30
2023-01-08T04:54:15.820Z,-1.50
2023-01-08T04:59:13.247Z,-1.60
2023-01-08T05:04:14.109Z,-1.70
2023-01-08T05:09:12.874Z,-1.80
2023-01-08T05:14:10.790Z,-1.60
2023-01-08T05:19:08.894Z,-1.60
2023-01-08T05:24:08.032Z,-1.60
2023-01-08T05:29:05.448Z,-1.50
2023-01-08T05:34:02.996Z,-1.40
2023-01-08T05:39:00.228Z,-1.40
2023-01-08T05:43:57.564Z,-1.30
2023-01-08T05:48:54.735Z,-1.40
2023-01-08T05:53:51.867Z,-1.50
2023-01-08T05:58:49.111Z,-1.70
2023-01-08T06:03:46.408Z,-2.00
2023-01-08T06:08:43.713Z,-2.20
2023-01-08T06:13:43.959Z,-2.20
2023-01-08T06:18:41.207Z,-2.20
2023-01-08T06:23:38.487Z,-2.20
2023-01-08T06:28:36.357Z,-2.30
2023-01-08T06:33:33.758Z,-2.30
2023-01-08T06:38:33.009Z,-2.30
2023-01-08T06:43:39.781Z,-2.50
2023-01-08T06:48:42.134Z,-2.40
2023-01-08T06:53:39.811Z,-2.20
2023-01-08T06:58:39.112Z,-2.10
2023-01-08T07:03:36.783Z,-2.10
2023-01-08T07:08:36.829Z,-2.10
2023-01-08T07:13:34.241Z,-2.00
2023-01-08T07:18:31.540Z,-2.10
2023-01-08T07:23:28.804Z,-1.70
2023-01-08T07:28:26.076Z,-1.60
2023-01-08T07:33:23.427Z,-1.70
2023-01-08T07:38:21.252Z,-1.60
2023-01-08T07:43:19.118Z,-1.50
2023-01-08T07:48:16.628Z,-1.70
2023-01-08T07:53:17.332Z,-1.40
2023-01-08T07:58:15.238Z,-1.70
2023-01-08T08:03:12.632Z,-1.80
2023-01-08T08:08:12.536Z,-1.70
2023-01-08T08:13:10.548Z,-1.70
2023-01-08T08:18:09.016Z,-1.80
2023-01-08T08:23:14.345Z,-1.50
2023-01-08T08:28:14.772Z,-1.30
2023-01-08T08:33:12.344Z,-1.00
2023-01-08T08:38:09.511Z,-0.70
2023-01-08T08:43:06.710Z,-0.60
2023-01-08T08:48:08.478Z,-0.50
2023-01-08T08:53:06.721Z,-0.30
2023-01-08T08:58:13.062Z,0.00
2023-01-08T09:03:14.093Z,2.00
2023-01-08T09:08:12.508Z,3.00
2023-01-08T09:13:09.877Z,4.30
2023-01-08T09:18:07.123Z,5.70
2023-01-08T09:23:04.768Z,6.40
2023-01-08T09:28:04.834Z,6.70
2023-01-08T09:33:03.559Z,6.90
2023-01-08T09:38:01.113Z,6.80
2023-01-08T09:43:01.861Z,7.60
2023-01-08T09:48:14.112Z,7.90
2023-01-08T09:53:15.674Z,7.70
2023-01-08T09:58:38.067Z,7.50
2023-01-08T10:03:47.388Z,7.10
2023-01-08T10:13:48.249Z,7.60
2023-01-08T10:18:45.505Z,7.80
2023-01-08T10:23:53.447Z,7.60
2023-01-08T10:28:50.955Z,8.00
2023-01-08T10:33:49.851Z,7.80
2023-01-08T10:38:59.302Z,7.30
2023-01-08T10:44:01.935Z,6.60
2023-01-08T10:49:01.523Z,6.30
2023-01-08T10:54:27.730Z,5.50
2023-01-08T10:59:28.040Z,5.10
2023-01-08T11:04:32.858Z,5.10
2023-01-08T11:09:48.419Z,4.90
2023-01-08T11:14:46.800Z,4.70
2023-01-08T11:19:44.029Z,5.00
2023-01-08T11:24:42.496Z,5.10
2023-01-08T11:30:02.849Z,4.90
2023-01-08T11:35:08.067Z,4.70
2023-01-08T11:40:15.223Z,4.50
2023-01-08T11:45:12.593Z,4.40
2023-01-08T11:50:10.118Z,4.10
2023-01-08T11:55:41.835Z,4.20
2023-01-08T12:00:54.465Z,4.30
2023-01-08T12:06:02.842Z,4.50
2023-01-08T12:11:03.037Z,4.50
2023-01-08T12:16:26.579Z,5.00
2023-01-08T12:21:29.955Z,5.10
2023-01-08T12:26:30.070Z,5.10
2023-01-08T12:31:44.314Z,5.20
2023-01-08T12:36:48.395Z,5.00
2023-01-08T12:41:47.126Z,5.10
2023-01-08T12:46:48.593Z,5.20
2023-01-08T12:51:49.009Z,5.10
2023-01-08T12:57:07.892Z,5.00
2023-01-08T13:02:57.252Z,5.00
2023-01-08T13:08:03.865Z,5.10
2023-01-08T13:13:05.943Z,5.00
2023-01-08T13:18:17.766Z,5.10
2023-01-08T13:23:27.209Z,5.10
2023-01-08T13:28:44.814Z,5.10
2023-01-08T13:33:43.416Z,5.20
2023-01-08T13:38:41.243Z,5.30
2023-01-08T13:43:49.373Z,5.50
2023-01-08T13:49:06.743Z,5.50
2023-01-08T13:54:12.927Z,5.50
2023-01-08T13:59:20.204Z,5.70
2023-01-08T14:04:23.257Z,5.80
2023-01-08T14:09:25.186Z,5.90
2023-01-08T14:14:26.909Z,6.00
2023-01-08T14:19:28.374Z,6.00
2023-01-08T14:24:26.638Z,6.00
2023-01-08T14:29:27.818Z,5.90
2023-01-08T14:34:31.844Z,5.90
2023-01-08T14:39:38.437Z,5.80
2023-01-08T14:44:39.099Z,5.70
2023-01-08T14:49:44.782Z,5.50
2023-01-08T14:54:46.342Z,5.50
2023-01-08T14:59:54.572Z,5.30
2023-01-08T15:05:13.166Z,5.00
2023-01-08T15:10:45.912Z,4.90
2023-01-08T15:15:56.412Z,4.60
2023-01-08T15:20:54.702Z,4.50
2023-01-08T15:25:53.076Z,4.40
2023-01-08T15:30:50.925Z,4.40
2023-01-08T15:35:49.702Z,4.40
2023-01-08T15:40:47.777Z,4.40
2023-01-08T15:45:47.303Z,4.30
2023-01-08T15:50:45.497Z,4.30
2023-01-08T15:55:43.775Z,4.30
2023-01-08T16:00:46.186Z,4.20
2023-01-08T16:05:46.531Z,4.30
2023-01-08T16:10:43.907Z,4.40
2023-01-08T16:15:44.015Z,4.40
2023-01-08T16:20:41.521Z,4.40
2023-01-08T16:25:41.793Z,4.30
2023-01-08T16:30:41.534Z,4.20
2023-01-08T16:35:38.752Z,4.10
2023-01-08T16:40:36.828Z,4.00
2023-01-08T16:45:34.506Z,4.00
2023-01-08T16:50:33.004Z,4.00
2023-01-08T16:55:33.353Z,3.90
2023-01-08T17:00:30.517Z,3.90
2023-01-08T17:05:28.613Z,3.90
2023-01-08T17:10:32.505Z,3.90
2023-01-08T17:15:30.513Z,3.80
2023-01-08T17:20:31.200Z,3.80
2023-01-08T17:25:28.805Z,3.90
2023-01-08T17:30:26.152Z,3.80
2023-01-08T17:35:26.574Z,3.80
2023-01-08T17:40:26.379Z,3.70
2023-01-08T17:45:26.581Z,3.70
2023-01-08T17:50:54.264Z,3.70
2023-01-08T17:56:18.304Z,3.60
2023-01-08T18:01:22.461Z,3.50
2023-01-08T18:06:55.636Z,3.50
2023-01-08T18:48:23.754Z,3.10
2023-01-08T18:53:51.583Z,3.10
2023-01-08T18:59:34.648Z,3.10
2023-01-08T19:04:45.951Z,2.90
2023-01-08T19:16:08.013Z,2.90
2023-01-08T19:21:45.102Z,3.10
2023-01-08T19:51:26.318Z,3.00
2023-01-08T20:08:26.773Z,2.70
2023-01-08T20:13:45.314Z,2.70
2023-01-08T20:19:05.667Z,2.80
2023-01-08T20:24:19.065Z,2.80
2023-01-08T20:29:20.918Z,2.70
2023-01-08T20:34:19.601Z,2.70
2023-01-08T20:39:24.177Z,2.80
2023-01-08T20:49:48.381Z,3.10
2023-01-08T20:54:45.743Z,3.30
2023-01-08T20:59:46.404Z,3.50
2023-01-08T21:04:43.944Z,3.70
2023-01-08T21:09:45.924Z,3.70
2023-01-08T21:14:46.122Z,3.70
2023-01-08T21:19:43.457Z,3.70
2023-01-08T21:24:41.255Z,3.60
2023-01-08T21:29:50.690Z,3.60
2023-01-08T21:34:52.334Z,3.50
2023-01-08T21:39:53.528Z,3.40
2023-01-08T21:45:09.241Z,3.40
2023-01-08T21:50:21.924Z,3.50
2023-01-08T21:55:19.354Z,3.50
2023-01-08T22:00:16.934Z,3.50
2023-01-08T22:05:14.883Z,3.50
2023-01-08T22:10:12.753Z,3.60
2023-01-08T22:15:11.359Z,3.60
2023-01-08T22:20:10.004Z,3.60
2023-01-08T22:25:07.844Z,3.70
2023-01-08T22:30:07.779Z,3.70
2023-01-08T22:35:06.194Z,3.70
2023-01-08T22:40:07.002Z,3.70
2023-01-08T22:45:04.793Z,3.70
2023-01-08T22:50:02.458Z,3.70
2023-01-08T22:54:59.901Z,3.70
2023-01-08T22:59:57.282Z,3.70
2023-01-08T23:04:54.694Z,3.70
2023-01-08T23:09:51.988Z,3.60
2023-01-08T23:14:49.282Z,3.60
2023-01-08T23:19:46.540Z,3.60
2023-01-08T23:24:46.615Z,3.50
2023-01-08T23:29:43.865Z,3.50
2023-01-08T23:34:41.169Z,3.50
2023-01-08T23:39:41.103Z,3.50
2023-01-08T23:44:38.611Z,3.50
2023-01-08T23:49:36.210Z,3.50
2023-01-08T23:54:33.555Z,3.50
2023-01-08T23:59:30.781Z,3.60
